< Typhoon 199608 1996 Season Typhoon 199610 >
Typhoon 199609 (HERB)
General InformationTrack Information on Google MapsDetailed Wind InformationList of All Images || NewsDisaster Info.ResourceGoogle EarthGE AnimationAtom FeedGeoJSON
Detalied Best Track (Time Zone = UTC)
Year Month Day Hour Lat. Long. Pressure (hPa) Wind (kt) Class Image Chart
1996 7 23 00 15.5 154.0 1004 0 2 Image Chart
1996 7 23 06 16.5 153.5 1004 0 2 Image Chart
1996 7 23 12 17.2 152.8 1004 0 2 Image Chart
1996 7 23 18 18.2 152.1 1004 0 2 Image Chart
1996 7 24 00 19.0 150.9 1000 35 3 Image Chart
1996 7 24 06 19.7 149.6 1000 35 3 Image Chart
1996 7 24 12 19.9 148.5 994 40 3 Image Chart
1996 7 24 18 20.2 147.5 994 40 3 Image Chart
1996 7 25 00 20.4 146.3 994 40 3 Image Chart
1996 7 25 06 20.4 144.9 992 40 3 Image Chart
1996 7 25 12 20.5 143.8 990 45 3 Image Chart
1996 7 25 18 20.6 142.5 985 50 4 Image Chart
1996 7 26 00 20.9 141.0 980 55 4 Image Chart
1996 7 26 06 20.8 139.3 975 60 4 Image Chart
1996 7 26 12 20.5 137.7 965 70 5 Image Chart
1996 7 26 18 20.1 136.9 955 75 5 Image Chart
1996 7 27 00 19.7 135.7 950 80 5 Image Chart
1996 7 27 06 19.5 134.7 940 85 5 Image Chart
1996 7 27 12 18.9 134.1 940 85 5 Image Chart
1996 7 27 18 18.8 133.1 940 85 5 Image Chart
1996 7 28 00 18.6 132.4 940 85 5 Image Chart
1996 7 28 06 18.5 131.8 940 85 5 Image Chart
1996 7 28 12 18.4 131.0 940 85 5 Image Chart
1996 7 28 18 18.3 130.4 940 85 5 Image Chart
1996 7 29 00 18.6 130.0 940 85 5 Image Chart
1996 7 29 06 19.3 129.4 940 85 5 Image Chart
1996 7 29 12 19.8 128.8 940 85 5 Image Chart
1996 7 29 18 20.2 128.2 940 85 5 Image Chart
1996 7 30 00 21.0 127.9 940 85 5 Image Chart
1996 7 30 06 22.1 127.2 935 90 5 Image Chart
1996 7 30 09 22.2 126.8 935 90 5 Image Chart
1996 7 30 12 22.4 126.5 930 90 5 Image Chart
1996 7 30 15 22.7 126.3 930 90 5 Image Chart
1996 7 30 18 23.2 126.0 925 90 5 Image Chart
1996 7 30 21 23.8 125.5 925 90 5 Image Chart
1996 7 31 00 24.0 124.7 925 90 5 Image Chart
1996 7 31 03 24.0 124.1 925 90 5 Image Chart
1996 7 31 06 24.1 123.8 925 95 5 Image Chart
1996 7 31 07 24.2 123.7 925 95 5 Image Chart
1996 7 31 09 24.6 123.3 925 95 5 Image Chart
1996 7 31 12 24.8 122.5 925 95 5 Image Chart
1996 7 31 15 24.8 121.6 950 80 5 Image Chart
1996 7 31 18 24.8 121.2 960 75 5 Image Chart
1996 7 31 21 24.9 120.6 965 70 5 Image Chart
1996 8 1 00 25.5 120.0 965 70 5 Image Chart
1996 8 1 03 25.8 119.4 965 70 5 Image Chart
1996 8 1 06 26.0 118.5 975 60 4 Image Chart
1996 8 1 12 26.3 117.1 980 45 3 Image Chart
1996 8 1 18 26.8 116.5 985 40 3 Image Chart
1996 8 2 00 27.4 115.4 988 35 3 Image Chart
1996 8 2 06 28.1 114.4 990 0 2 Image Chart
1996 8 2 12 29.1 114.0 992 0 2 Image Chart
1996 8 2 18 30.4 113.6 996 0 2 Image Chart
1996 8 3 00 31.2 113.1 998 0 2 Image Chart
1996 8 3 06 31.6 112.7 998 0 2 Image Chart
1996 8 3 12 32.0 112.1 1000 0 2 Image Chart
1996 8 3 18 32.5 111.7 1000 0 2 Image Chart
1996 8 4 00 32.6 111.0 1000 0 2 Image Chart
1996 8 4 06 33.1 110.5 1000 0 2 Image Chart
1996 8 4 12 33.6 110.0 1000 0 2 Image Chart
Japan Meteorological Agency Best Track Data | Correction Date : 1997-01-07
< Typhoon 199608 1996 Season Typhoon 199610 >

Help